BCK weather

Black River Falls Area Airport
Black River Falls, Wisconsin, United States

Public forecast

Using degrees Fahrenheit for public forecast. Weather courtesy of forecast.io.

Current aviation weather report (METAR) for Black River Falls Area Airport

Retrieved 2019/10/18 17:35 UTC (0 seconds ago):

KBCK 181735Z AUTO 15009G15KT 10SM CLR 15/05 A2986 RMK AO2 T01510045

Closest aviation forecast (TAF) to Black River Falls Area Airport

Closest forecast is La Crosse Municipal Airport, 28.2 nm (52.3 km) SW. Retrieved 2019/10/18 12:22 UTC (5 hours ago):

TAF KLSE 181120Z 1812/1912 12008KT P6SM BKN250 FM181500 16017G27KT P6SM SCT250 FM190000 16015KT P6SM SCT250 WS015/18045KT FM190400 17014KT P6SM SCT070 WS020/21045KT FM191000 18012KT P6SM VCSH SCT030 BKN050